Portada
METAR-TAF:

METAR-TAF

Aeropuertos :

Lewis University Airport

Romeoville, Illinois, Estados Unidos

latitud: 41-36-30N, longitud: 088-05-39W, altitud: 205 m

Observación

El informe se hizo hace 1 hora y 6 minutos, a las 18:55 UTC
Viento 17 kt del sur
Temperatura 33°C
Humedad 46%
Presión 1023 hPa
Visibilidad: 16.1 km
Escasas nubes a una altura de 5500 ft

METAR: KLOT 191855Z 18017KT 10SM FEW055 33/20 A3020

Hora: 15:01 (20:01 UTC)


TAF: falta

Observaciones y pronósticos meteorológicos de más de 4000 aeropuertos (mensajes METAR y TAF).

Los puntos amarillos y rojos representan las estaciones disponibles.

Ponga el ratón en el punto deseado para ver el nombre de la estación.

Haga clic para ver las observaciones y los pronósticos meteorológicos.

Para cambiar el mapa : haga clic en los botones verdes con una cruz de color negro para hacer un zoom, en el botón verde con un guión para alejar o en las flechas verdes para mapas adyacentes.


METAR-TAF: